createdAt,value
2018-10-19T00:01:40.422Z,8.50
2018-10-19T00:04:07.981Z,8.40
2018-10-19T00:06:35.732Z,8.40
2018-10-19T00:09:04.781Z,8.40
2018-10-19T00:11:32.331Z,8.50
2018-10-19T00:13:59.861Z,8.50
2018-10-19T00:16:27.383Z,8.50
2018-10-19T00:18:54.899Z,8.50
2018-10-19T00:21:22.510Z,8.50
2018-10-19T00:23:50.638Z,8.50
2018-10-19T00:26:18.329Z,8.50
2018-10-19T00:28:45.892Z,8.50
2018-10-19T00:31:13.846Z,8.50
2018-10-19T00:33:41.382Z,8.50
2018-10-19T00:36:08.939Z,8.50
2018-10-19T00:38:36.584Z,8.50
2018-10-19T00:41:04.592Z,8.50
2018-10-19T00:43:32.152Z,8.50
2018-10-19T00:45:59.742Z,8.50
2018-10-19T00:48:27.311Z,8.50
2018-10-19T00:50:54.937Z,8.50
2018-10-19T00:53:22.507Z,8.50
2018-10-19T00:55:50.979Z,8.50
2018-10-19T00:58:18.629Z,8.40
2018-10-19T01:00:49.072Z,8.40
2018-10-19T01:03:16.735Z,8.40
2018-10-19T01:05:44.728Z,8.30
2018-10-19T01:08:12.287Z,8.30
2018-10-19T01:10:39.918Z,8.30
2018-10-19T01:13:08.442Z,8.20
2018-10-19T01:15:36.117Z,8.20
2018-10-19T01:18:03.928Z,8.10
2018-10-19T01:20:31.536Z,8.10
2018-10-19T01:22:59.463Z,8.10
2018-10-19T01:25:27.131Z,8.10
2018-10-19T01:27:54.770Z,8.00
2018-10-19T01:30:22.472Z,8.00
2018-10-19T01:32:50.952Z,8.00
2018-10-19T01:35:18.852Z,8.00
2018-10-19T01:37:46.413Z,8.00
2018-10-19T01:40:14.031Z,8.10
2018-10-19T01:42:41.687Z,8.00
2018-10-19T01:45:11.092Z,8.00
2018-10-19T01:47:39.263Z,8.10
2018-10-19T01:50:07.426Z,8.10
2018-10-19T01:52:35.155Z,8.10
2018-10-19T01:55:02.915Z,8.00
2018-10-19T01:57:30.461Z,8.00
2018-10-19T01:59:58.370Z,8.00
2018-10-19T02:02:25.928Z,8.00
2018-10-19T02:04:53.674Z,8.00
2018-10-19T02:07:21.187Z,7.90
2018-10-19T02:09:51.026Z,8.00
2018-10-19T02:12:18.569Z,7.90
2018-10-19T02:14:46.137Z,7.90
2018-10-19T02:17:13.794Z,7.80
2018-10-19T02:19:41.256Z,7.70
2018-10-19T02:22:08.974Z,7.70
2018-10-19T02:24:36.576Z,7.70
2018-10-19T02:27:04.422Z,7.60
2018-10-19T02:29:32.065Z,7.50
2018-10-19T02:32:00.104Z,7.50
2018-10-19T02:34:27.650Z,7.50
2018-10-19T02:36:55.177Z,7.50
2018-10-19T02:39:22.959Z,7.50
2018-10-19T02:41:51.119Z,7.50
2018-10-19T02:44:18.819Z,7.50
2018-10-19T02:46:46.394Z,7.60
2018-10-19T02:49:13.955Z,7.60
2018-10-19T02:51:41.836Z,7.60
2018-10-19T02:54:12.818Z,7.60
2018-10-19T02:56:40.350Z,7.60
2018-10-19T02:59:08.031Z,7.60
2018-10-19T03:01:35.616Z,7.60
2018-10-19T03:04:03.284Z,7.60
2018-10-19T03:06:30.921Z,7.50
2018-10-19T03:08:58.896Z,7.50
2018-10-19T03:11:26.520Z,7.50
2018-10-19T03:13:54.417Z,7.50
2018-10-19T03:16:21.951Z,7.60
2018-10-19T03:18:51.171Z,7.60
2018-10-19T03:21:18.766Z,7.70
2018-10-19T03:23:46.379Z,7.70
2018-10-19T03:26:13.892Z,7.70
2018-10-19T03:28:41.517Z,7.70
2018-10-19T03:31:09.154Z,7.70
2018-10-19T03:33:37.104Z,7.70
2018-10-19T03:36:04.946Z,7.70
2018-10-19T03:38:32.430Z,7.70
2018-10-19T03:41:00.281Z,7.70
2018-10-19T03:43:27.817Z,7.60
2018-10-19T03:45:55.379Z,7.60
2018-10-19T03:48:22.934Z,7.60
2018-10-19T03:50:51.804Z,7.60
2018-10-19T03:53:19.429Z,7.50
2018-10-19T03:55:46.976Z,7.50
2018-10-19T03:58:14.939Z,7.50
2018-10-19T04:00:42.490Z,7.40
2018-10-19T04:03:10.119Z,7.50
2018-10-19T04:05:37.821Z,7.50
2018-10-19T04:08:05.451Z,7.50
2018-10-19T04:10:34.155Z,7.50
2018-10-19T04:13:02.721Z,7.40
2018-10-19T04:15:30.308Z,7.40
2018-10-19T04:17:58.132Z,7.30
2018-10-19T04:20:25.867Z,7.30
2018-10-19T04:23:00.010Z,7.20
2018-10-19T04:25:27.595Z,7.30
2018-10-19T04:27:55.513Z,7.30
2018-10-19T04:30:23.066Z,7.30
2018-10-19T04:32:50.966Z,7.30
2018-10-19T04:35:18.641Z,7.30
2018-10-19T04:37:47.182Z,7.30
2018-10-19T04:40:20.717Z,7.30
2018-10-19T04:42:48.976Z,7.30
2018-10-19T04:45:17.422Z,7.30
2018-10-19T04:47:45.309Z,7.30
2018-10-19T04:50:13.053Z,7.20
2018-10-19T04:52:40.667Z,7.10
2018-10-19T04:55:11.868Z,7.10
2018-10-19T04:57:39.583Z,7.00
2018-10-19T05:00:07.389Z,7.00
2018-10-19T05:02:35.379Z,7.00
2018-10-19T05:05:03.361Z,6.90
2018-10-19T05:07:30.844Z,6.90
2018-10-19T05:09:59.499Z,6.90
2018-10-19T05:12:27.118Z,6.90
2018-10-19T05:14:54.965Z,6.90
2018-10-19T05:17:22.527Z,6.90
2018-10-19T05:19:51.422Z,6.90
2018-10-19T05:22:20.409Z,7.00
2018-10-19T05:24:51.223Z,7.00
2018-10-19T05:27:21.005Z,7.00
2018-10-19T05:29:49.764Z,7.10
2018-10-19T05:32:17.373Z,7.10
2018-10-19T05:34:45.148Z,7.20
2018-10-19T05:37:12.773Z,7.20
2018-10-19T05:39:40.538Z,7.30
2018-10-19T05:42:08.159Z,7.30
2018-10-19T05:44:35.873Z,7.30
2018-10-19T05:47:03.484Z,7.30
2018-10-19T05:49:31.105Z,7.40
2018-10-19T05:51:59.140Z,7.40
2018-10-19T05:54:26.863Z,7.50
2018-10-19T05:56:55.118Z,7.50
2018-10-19T05:59:22.886Z,7.50
2018-10-19T06:01:51.261Z,7.60
2018-10-19T06:04:18.938Z,7.60
2018-10-19T06:06:46.834Z,7.70
2018-10-19T06:09:14.583Z,7.70
2018-10-19T06:11:42.246Z,7.70
2018-10-19T06:14:10.072Z,7.80
2018-10-19T06:16:38.203Z,7.80
2018-10-19T06:19:05.890Z,7.90
2018-10-19T06:21:33.475Z,7.90
2018-10-19T06:24:01.030Z,7.90
2018-10-19T06:26:28.692Z,8.00
2018-10-19T06:28:56.197Z,8.00
2018-10-19T06:31:23.751Z,8.10
2018-10-19T06:33:53.666Z,8.10
2018-10-19T06:36:21.263Z,8.20
2018-10-19T06:38:50.314Z,8.20
2018-10-19T06:41:18.047Z,8.30
2018-10-19T06:43:45.614Z,8.40
2018-10-19T06:46:13.223Z,8.40
2018-10-19T06:48:40.984Z,8.40
2018-10-19T06:51:08.543Z,8.50
2018-10-19T06:53:36.159Z,8.60
2018-10-19T06:56:03.725Z,8.60
2018-10-19T06:58:31.347Z,8.60
2018-10-19T07:01:02.622Z,8.70
2018-10-19T07:03:30.204Z,8.70
2018-10-19T07:05:57.815Z,8.80
2018-10-19T07:08:25.754Z,8.80
2018-10-19T07:10:53.576Z,8.80
2018-10-19T07:13:21.192Z,8.90
2018-10-19T07:15:50.024Z,8.90
2018-10-19T07:18:19.768Z,9.00
2018-10-19T07:20:47.350Z,9.10
2018-10-19T07:23:15.103Z,9.10
2018-10-19T07:25:42.786Z,9.20
2018-10-19T07:28:10.330Z,9.30
2018-10-19T07:30:38.013Z,9.30
2018-10-19T07:33:05.687Z,9.30
2018-10-19T07:35:33.260Z,9.30
2018-10-19T07:38:00.930Z,9.50
2018-10-19T07:40:28.502Z,9.60
2018-10-19T07:42:56.034Z,9.60
2018-10-19T07:45:23.690Z,9.70
2018-10-19T07:47:51.771Z,9.80
2018-10-19T07:50:19.371Z,9.80
2018-10-19T07:52:46.994Z,9.80
2018-10-19T07:55:14.555Z,9.80
2018-10-19T07:57:42.191Z,9.80
2018-10-19T08:00:10.320Z,9.80
2018-10-19T08:02:37.906Z,9.80
2018-10-19T08:05:06.505Z,9.80
2018-10-19T08:07:34.116Z,9.80
2018-10-19T08:10:01.757Z,9.90
2018-10-19T08:12:29.391Z,9.90
2018-10-19T08:14:58.003Z,9.80
2018-10-19T08:17:25.684Z,9.90
2018-10-19T08:19:53.850Z,10.00
2018-10-19T08:22:21.465Z,10.00
2018-10-19T08:24:52.011Z,10.10
2018-10-19T08:27:19.622Z,10.20
2018-10-19T08:29:47.235Z,10.20
2018-10-19T08:32:15.154Z,10.30
2018-10-19T08:34:46.667Z,10.40
2018-10-19T08:37:14.215Z,10.50
2018-10-19T08:39:42.068Z,10.60
2018-10-19T08:42:13.350Z,10.60
2018-10-19T08:44:41.092Z,10.60
2018-10-19T08:47:08.694Z,10.60
2018-10-19T08:49:36.255Z,10.70
2018-10-19T08:52:03.987Z,10.80
2018-10-19T08:54:31.932Z,10.80
2018-10-19T08:56:59.667Z,10.70
2018-10-19T08:59:27.284Z,10.80
2018-10-19T09:01:55.258Z,10.80
2018-10-19T09:04:22.824Z,10.90
2018-10-19T09:06:51.449Z,10.90
2018-10-19T09:09:20.620Z,11.10
2018-10-19T09:11:50.285Z,11.10
2018-10-19T09:14:30.298Z,11.20
2018-10-19T09:16:58.078Z,11.40
2018-10-19T09:19:25.716Z,11.80
2018-10-19T09:21:53.302Z,12.00
2018-10-19T09:24:20.976Z,12.10
2018-10-19T09:26:52.070Z,12.20
2018-10-19T09:29:19.805Z,12.20
2018-10-19T09:31:47.443Z,12.30
2018-10-19T09:34:15.093Z,12.50
2018-10-19T09:36:42.723Z,12.90
2018-10-19T09:39:12.220Z,13.10
2018-10-19T09:41:39.933Z,13.30
2018-10-19T09:44:07.522Z,13.50
2018-10-19T09:46:38.352Z,13.90
2018-10-19T09:49:06.974Z,14.40
2018-10-19T09:51:34.838Z,15.00
2018-10-19T09:54:02.543Z,15.80
2018-10-19T09:56:30.098Z,16.50
2018-10-19T09:58:57.985Z,17.00
2018-10-19T10:01:28.559Z,17.50
2018-10-19T10:03:56.169Z,17.80
2018-10-19T10:06:26.052Z,18.20
2018-10-19T10:08:53.875Z,18.80
2018-10-19T10:11:21.451Z,19.50
2018-10-19T10:13:50.646Z,20.10
2018-10-19T10:16:18.658Z,20.50
2018-10-19T10:18:46.203Z,20.90
2018-10-19T10:21:13.784Z,21.30
2018-10-19T10:23:41.870Z,21.70
2018-10-19T10:26:09.514Z,22.00
2018-10-19T10:28:37.155Z,22.30
2018-10-19T10:31:05.591Z,22.10
2018-10-19T10:33:33.161Z,21.90
2018-10-19T10:36:01.682Z,22.00
2018-10-19T10:38:29.299Z,22.30
2018-10-19T10:40:56.815Z,22.00
2018-10-19T10:43:24.405Z,21.70
2018-10-19T10:45:51.965Z,22.20
2018-10-19T10:48:20.596Z,22.70
2018-10-19T10:50:50.044Z,23.20
2018-10-19T10:53:17.883Z,23.50
2018-10-19T10:55:45.863Z,23.90
2018-10-19T10:58:13.594Z,24.00
2018-10-19T11:00:41.140Z,24.30
2018-10-19T11:03:08.731Z,24.80
2018-10-19T11:05:36.330Z,25.20
2018-10-19T11:08:04.323Z,25.20
2018-10-19T11:10:31.937Z,25.60
2018-10-19T11:13:00.019Z,25.80
2018-10-19T11:15:27.595Z,26.10
2018-10-19T11:17:55.515Z,26.40
2018-10-19T11:20:23.191Z,26.10
2018-10-19T11:22:55.393Z,26.10
2018-10-19T11:25:23.119Z,26.10
2018-10-19T11:27:53.197Z,26.10
2018-10-19T11:30:21.104Z,25.80
2018-10-19T11:32:49.858Z,25.90
2018-10-19T11:35:17.447Z,26.30
2018-10-19T11:37:45.482Z,26.00
2018-10-19T11:40:25.261Z,25.80
2018-10-19T11:42:54.004Z,26.00
2018-10-19T11:45:22.169Z,26.00
2018-10-19T11:47:50.980Z,26.10
2018-10-19T11:50:18.546Z,26.30
2018-10-19T11:52:46.366Z,26.60
2018-10-19T11:55:17.809Z,26.80
2018-10-19T11:57:46.341Z,27.00
2018-10-19T12:00:13.962Z,27.40
2018-10-19T12:02:41.623Z,27.60
2018-10-19T12:05:09.335Z,27.50
2018-10-19T12:07:37.394Z,27.40
2018-10-19T12:10:06.975Z,27.40
2018-10-19T12:12:35.147Z,27.40
2018-10-19T12:15:02.867Z,27.50
2018-10-19T12:17:30.475Z,27.20
2018-10-19T12:19:58.053Z,27.10
2018-10-19T12:22:25.710Z,26.80
2018-10-19T12:24:53.277Z,26.90
2018-10-19T12:27:20.977Z,27.00
2018-10-19T12:29:49.963Z,27.40
2018-10-19T12:32:17.515Z,27.60
2018-10-19T12:34:45.339Z,27.50
2018-10-19T12:37:12.999Z,27.70
2018-10-19T12:39:40.616Z,27.80
2018-10-19T12:42:09.204Z,27.70
2018-10-19T12:44:37.016Z,27.50
2018-10-19T12:47:15.987Z,27.40
2018-10-19T12:49:44.351Z,27.30
2018-10-19T12:52:12.020Z,27.30
2018-10-19T12:54:39.698Z,26.90
2018-10-19T12:57:07.532Z,26.40
2018-10-19T12:59:35.108Z,26.10
2018-10-19T13:02:02.957Z,25.60
2018-10-19T13:04:30.522Z,25.20
2018-10-19T13:06:58.180Z,25.20
2018-10-19T13:09:25.727Z,25.40
2018-10-19T13:11:53.291Z,25.50
2018-10-19T13:14:22.867Z,25.60
2018-10-19T13:16:51.776Z,25.70
2018-10-19T13:19:19.361Z,25.40
2018-10-19T13:21:47.414Z,25.20
2018-10-19T13:24:16.083Z,24.90
2018-10-19T13:26:43.620Z,24.60
2018-10-19T13:29:11.372Z,24.20
2018-10-19T13:31:39.015Z,23.80
2018-10-19T13:34:06.590Z,23.70
2018-10-19T13:36:34.152Z,23.50
2018-10-19T13:39:01.698Z,23.10
2018-10-19T13:41:29.392Z,22.70
2018-10-19T13:43:56.906Z,22.40
2018-10-19T13:46:24.467Z,22.20
2018-10-19T13:48:52.469Z,22.10
2018-10-19T13:51:20.137Z,22.00
2018-10-19T13:53:47.764Z,22.00
2018-10-19T13:56:17.391Z,22.00
2018-10-19T13:58:46.020Z,21.90
2018-10-19T14:01:13.599Z,22.00
2018-10-19T14:03:41.300Z,22.00
2018-10-19T14:06:08.932Z,22.10
2018-10-19T14:08:36.491Z,22.00
2018-10-19T14:11:04.404Z,22.00
2018-10-19T14:13:32.470Z,21.80
2018-10-19T14:16:00.401Z,21.70
2018-10-19T14:18:29.187Z,21.60
2018-10-19T14:20:59.174Z,21.30
2018-10-19T14:23:29.075Z,21.10
2018-10-19T14:25:56.671Z,21.00
2018-10-19T14:28:24.255Z,20.80
2018-10-19T14:30:51.860Z,20.70
2018-10-19T14:33:19.612Z,20.60
2018-10-19T14:35:47.091Z,20.40
2018-10-19T14:38:14.741Z,20.30
2018-10-19T14:40:42.316Z,20.30
2018-10-19T14:43:10.054Z,20.20
2018-10-19T14:45:41.630Z,20.10
2018-10-19T14:48:09.215Z,19.90
2018-10-19T14:50:36.807Z,19.70
2018-10-19T14:53:04.584Z,19.50
2018-10-19T14:55:32.228Z,19.30
2018-10-19T14:58:00.179Z,19.10
2018-10-19T15:00:28.829Z,18.90
2018-10-19T15:02:57.689Z,18.70
2018-10-19T15:05:25.530Z,18.60
2018-10-19T15:07:57.432Z,18.40
2018-10-19T15:10:25.904Z,18.30
2018-10-19T15:12:54.320Z,18.10
2018-10-19T15:15:22.767Z,18.00
2018-10-19T15:17:52.007Z,17.80
2018-10-19T15:20:19.655Z,17.60
2018-10-19T15:22:47.892Z,17.50
2018-10-19T15:25:15.676Z,17.40
2018-10-19T15:27:45.196Z,17.30
2018-10-19T15:30:14.425Z,17.20
2018-10-19T15:32:42.466Z,17.20
2018-10-19T15:35:11.193Z,17.10
2018-10-19T15:37:39.040Z,17.10
2018-10-19T15:40:07.482Z,17.00
2018-10-19T15:42:35.107Z,17.00
2018-10-19T15:45:02.759Z,16.90
2018-10-19T15:47:31.430Z,16.90
2018-10-19T15:49:59.441Z,16.80
2018-10-19T15:52:27.348Z,16.70
2018-10-19T15:55:02.651Z,16.60
2018-10-19T15:57:30.700Z,16.50
2018-10-19T15:59:59.820Z,16.50
2018-10-19T16:02:27.330Z,16.30
2018-10-19T16:04:55.359Z,16.20
2018-10-19T16:07:22.971Z,16.10
2018-10-19T16:09:52.538Z,16.00
2018-10-19T16:12:20.145Z,15.90
2018-10-19T16:14:47.753Z,15.80
2018-10-19T16:17:15.308Z,15.70
2018-10-19T16:19:42.878Z,15.60
2018-10-19T16:22:10.539Z,15.50
2018-10-19T16:24:38.246Z,15.30
2018-10-19T16:27:06.082Z,15.20
2018-10-19T16:29:33.612Z,15.10
2018-10-19T16:32:03.852Z,14.90
2018-10-19T16:34:34.916Z,14.80
2018-10-19T16:37:03.689Z,14.60
2018-10-19T16:39:32.625Z,14.50
2018-10-19T16:42:00.767Z,14.30
2018-10-19T16:44:28.468Z,14.20
2018-10-19T16:46:57.187Z,14.10
2018-10-19T16:49:25.861Z,13.90
2018-10-19T16:51:56.724Z,13.90
2018-10-19T16:54:25.415Z,13.80
2018-10-19T16:56:54.091Z,13.60
2018-10-19T16:59:21.815Z,13.60
2018-10-19T17:01:50.852Z,13.40
2018-10-19T17:04:18.501Z,13.30
2018-10-19T17:06:46.276Z,13.20
2018-10-19T17:09:14.355Z,13.10
2018-10-19T17:11:42.179Z,13.00
2018-10-19T17:14:10.084Z,12.90
2018-10-19T17:16:37.910Z,12.80
2018-10-19T17:19:06.264Z,12.70
2018-10-19T17:21:34.161Z,12.60
2018-10-19T17:24:01.937Z,12.50
2018-10-19T17:26:29.797Z,12.40
2018-10-19T17:28:57.829Z,12.40
2018-10-19T17:31:25.631Z,12.30
2018-10-19T17:33:53.780Z,12.20
2018-10-19T17:36:21.612Z,12.10
2018-10-19T17:38:52.723Z,12.10
2018-10-19T17:41:26.668Z,12.10
2018-10-19T17:43:54.688Z,12.00
2018-10-19T17:46:23.494Z,12.00
2018-10-19T17:48:52.183Z,11.90
2018-10-19T17:51:20.239Z,11.90
2018-10-19T17:53:50.303Z,11.80
2018-10-19T17:56:18.612Z,11.80
2018-10-19T17:58:47.046Z,11.70
2018-10-19T18:01:16.919Z,11.60
2018-10-19T18:03:50.181Z,11.50
2018-10-19T18:06:23.842Z,11.40
2018-10-19T18:08:52.664Z,11.30
2018-10-19T18:11:27.740Z,11.30
2018-10-19T18:13:56.940Z,11.20
2018-10-19T18:16:24.912Z,11.20
2018-10-19T18:18:53.861Z,11.10
2018-10-19T18:21:22.168Z,11.00
2018-10-19T18:23:51.107Z,10.90
2018-10-19T18:26:19.056Z,10.90
2018-10-19T18:28:47.444Z,10.90
2018-10-19T18:31:15.517Z,10.80
2018-10-19T18:33:45.849Z,10.70
2018-10-19T18:36:13.849Z,10.60
2018-10-19T18:38:41.764Z,10.60
2018-10-19T18:41:10.002Z,10.50
2018-10-19T18:43:38.097Z,10.50
2018-10-19T18:46:07.181Z,10.40
2018-10-19T18:48:35.370Z,10.30
2018-10-19T18:51:03.384Z,10.30
2018-10-19T18:53:31.426Z,10.20
2018-10-19T18:55:59.760Z,10.20
2018-10-19T18:58:27.605Z,10.10
2018-10-19T19:00:55.636Z,10.10
2018-10-19T19:03:23.706Z,10.00
2018-10-19T19:05:52.967Z,9.90
2018-10-19T19:08:20.908Z,9.90
2018-10-19T19:10:48.787Z,9.80
2018-10-19T19:13:22.440Z,9.80
2018-10-19T19:15:52.948Z,9.80
2018-10-19T19:18:20.988Z,9.80
2018-10-19T19:20:49.092Z,9.70
2018-10-19T19:23:17.095Z,9.70
2018-10-19T19:25:51.803Z,9.70
2018-10-19T19:28:19.813Z,9.70
2018-10-19T19:30:47.793Z,9.60
2018-10-19T19:33:21.581Z,9.60
2018-10-19T19:35:50.574Z,9.60
2018-10-19T19:38:18.710Z,9.50
2018-10-19T19:40:52.297Z,9.50
2018-10-19T19:43:20.232Z,9.50
2018-10-19T19:45:48.100Z,9.40
2018-10-19T19:48:21.592Z,9.40
2018-10-19T19:50:50.791Z,9.30
2018-10-19T19:53:18.539Z,9.30
2018-10-19T19:55:46.472Z,9.20
2018-10-19T19:58:14.430Z,9.20
2018-10-19T20:00:42.362Z,9.10
2018-10-19T20:03:10.472Z,9.10
2018-10-19T20:05:38.669Z,9.00
2018-10-19T20:08:06.874Z,9.00
2018-10-19T20:10:34.900Z,9.00
2018-10-19T20:13:02.768Z,9.00
2018-10-19T20:15:31.157Z,9.00
2018-10-19T20:17:59.589Z,8.90
2018-10-19T20:20:27.615Z,8.90
2018-10-19T20:22:56.074Z,8.80
2018-10-19T20:25:24.105Z,8.80
2018-10-19T20:27:52.832Z,8.70
2018-10-19T20:30:20.802Z,8.70
2018-10-19T20:32:48.775Z,8.70
2018-10-19T20:35:16.780Z,8.60
2018-10-19T20:37:44.770Z,8.60
2018-10-19T20:40:12.712Z,8.70
2018-10-19T20:42:40.780Z,8.60
2018-10-19T20:45:08.819Z,8.60
2018-10-19T20:47:42.666Z,8.60
2018-10-19T20:50:16.534Z,8.50
2018-10-19T20:52:51.766Z,8.50
2018-10-19T20:55:20.799Z,8.50
2018-10-19T20:57:53.798Z,8.40
2018-10-19T21:00:22.727Z,8.40
2018-10-19T21:02:52.842Z,8.30
2018-10-19T21:05:20.641Z,8.30
2018-10-19T21:07:48.484Z,8.30
2018-10-19T21:10:16.413Z,8.30
2018-10-19T21:12:44.582Z,8.30
2018-10-19T21:15:14.124Z,8.20
2018-10-19T21:17:42.287Z,8.20
2018-10-19T21:20:11.339Z,8.10
2018-10-19T21:22:39.326Z,8.10
2018-10-19T21:25:08.540Z,8.10
2018-10-19T21:27:36.741Z,8.10
2018-10-19T21:30:05.680Z,8.10
2018-10-19T21:32:33.433Z,8.00
2018-10-19T21:35:01.683Z,8.00
2018-10-19T21:37:29.604Z,8.10
2018-10-19T21:39:57.544Z,8.10
2018-10-19T21:42:25.712Z,8.00
2018-10-19T21:44:53.811Z,8.00
2018-10-19T21:47:21.908Z,8.00
2018-10-19T21:49:50.856Z,8.00
2018-10-19T21:52:19.036Z,8.00
2018-10-19T21:54:47.337Z,7.90
2018-10-19T21:57:15.403Z,7.80
2018-10-19T21:59:43.324Z,7.70
2018-10-19T22:02:15.390Z,7.80
2018-10-19T22:04:48.348Z,7.80
2018-10-19T22:07:17.966Z,7.80
2018-10-19T22:09:50.916Z,7.70
2018-10-19T22:12:18.993Z,7.60
2018-10-19T22:14:46.856Z,7.60
2018-10-19T22:17:18.728Z,7.50
2018-10-19T22:19:46.646Z,7.50
2018-10-19T22:22:14.434Z,7.50
2018-10-19T22:24:42.326Z,7.50
2018-10-19T22:27:10.277Z,7.50
2018-10-19T22:29:38.297Z,7.50
2018-10-19T22:32:07.284Z,7.50
2018-10-19T22:34:35.158Z,7.50
2018-10-19T22:37:03.058Z,7.50
2018-10-19T22:39:31.024Z,7.50
2018-10-19T22:42:00.031Z,7.40
2018-10-19T22:44:28.004Z,7.40
2018-10-19T22:46:56.055Z,7.40
2018-10-19T22:49:24.970Z,7.40
2018-10-19T22:51:53.461Z,7.40
2018-10-19T22:54:26.752Z,7.40
2018-10-19T22:56:54.929Z,7.40
2018-10-19T22:59:23.939Z,7.40
2018-10-19T23:01:53.241Z,7.40
2018-10-19T23:04:20.988Z,7.40
2018-10-19T23:06:54.962Z,7.40
2018-10-19T23:09:22.888Z,7.40
2018-10-19T23:11:52.236Z,7.40
2018-10-19T23:14:20.120Z,7.40
2018-10-19T23:16:47.927Z,7.40
2018-10-19T23:19:19.455Z,7.40
2018-10-19T23:21:47.520Z,7.40
2018-10-19T23:24:15.493Z,7.30
2018-10-19T23:26:44.458Z,7.30
2018-10-19T23:29:12.324Z,7.30
2018-10-19T23:31:40.213Z,7.30
2018-10-19T23:34:07.893Z,7.20
2018-10-19T23:36:36.209Z,7.20
2018-10-19T23:39:06.552Z,7.20
2018-10-19T23:41:39.120Z,7.20
2018-10-19T23:44:06.952Z,7.10
2018-10-19T23:46:35.280Z,7.10
2018-10-19T23:49:03.361Z,7.10
2018-10-19T23:51:32.347Z,7.10
2018-10-19T23:54:00.647Z,7.10
2018-10-19T23:56:28.555Z,7.10
2018-10-19T23:58:56.362Z,7.00
